Medley, Florida
Current Conditions -  °F | °C
As of 3:53 PM on Saturday 22 Nov 2014 (Local Time) from KMIA Reporting Station
Overcast Overcast  
Wind Chill: 79°   Ceiling: 3300
Heat Index: 82°   Visibility: 10mi
Dew Point: 69°   Wind: 18mph
Humidity: 72%   Direction: 90°E
Pressure: 30.08"   Gusts: 26mph
Location:  25.8372°N, 80.3985°W
Report Text: KMIA 222053Z 09016G23KT 10SM SCT024 OVC033 26/21 A3008 RMK AO2 PK WND 09026/2015 SLP185 T02610206 56017
Loading
Personal Weather Stations






























Interactive Weather Map New forecast layout! Learn more

10-Day Weather Forecast

Advertisements
Track Severe Weather on mobile